sensor_id;sensor_type;location;lat;lon;timestamp;P1;durP1;ratioP1;P2;durP2;ratioP2
17361;SDS011;8798;51.938;4.348;2023-01-04T00:01:18;3.53;;;1.20;;
17361;SDS011;8798;51.938;4.348;2023-01-04T00:03:47;2.03;;;1.00;;
17361;SDS011;8798;51.938;4.348;2023-01-04T00:06:16;1.50;;;1.03;;
17361;SDS011;8798;51.938;4.348;2023-01-04T00:08:44;5.07;;;1.03;;
17361;SDS011;8798;51.938;4.348;2023-01-04T00:11:13;1.70;;;0.67;;
17361;SDS011;8798;51.938;4.348;2023-01-04T00:13:44;2.00;;;0.90;;
17361;SDS011;8798;51.938;4.348;2023-01-04T00:16:12;3.57;;;1.20;;
17361;SDS011;8798;51.938;4.348;2023-01-04T00:18:41;1.53;;;1.00;;
17361;SDS011;8798;51.938;4.348;2023-01-04T00:21:10;1.37;;;1.00;;
17361;SDS011;8798;51.938;4.348;2023-01-04T00:23:41;1.87;;;0.87;;
17361;SDS011;8798;51.938;4.348;2023-01-04T00:26:11;3.27;;;1.20;;
17361;SDS011;8798;51.938;4.348;2023-01-04T00:28:40;1.37;;;0.90;;
17361;SDS011;8798;51.938;4.348;2023-01-04T00:31:17;2.17;;;1.00;;
17361;SDS011;8798;51.938;4.348;2023-01-04T00:33:45;1.93;;;0.87;;
17361;SDS011;8798;51.938;4.348;2023-01-04T00:36:13;1.97;;;1.20;;
17361;SDS011;8798;51.938;4.348;2023-01-04T00:38:42;3.00;;;0.93;;
17361;SDS011;8798;51.938;4.348;2023-01-04T00:41:11;4.53;;;1.20;;
17361;SDS011;8798;51.938;4.348;2023-01-04T00:43:59;1.83;;;1.20;;
17361;SDS011;8798;51.938;4.348;2023-01-04T00:46:28;2.57;;;1.20;;
17361;SDS011;8798;51.938;4.348;2023-01-04T00:48:58;3.97;;;1.03;;
17361;SDS011;8798;51.938;4.348;2023-01-04T00:51:26;2.10;;;1.00;;
17361;SDS011;8798;51.938;4.348;2023-01-04T00:53:57;1.77;;;1.00;;
17361;SDS011;8798;51.938;4.348;2023-01-04T00:56:26;1.40;;;1.00;;
17361;SDS011;8798;51.938;4.348;2023-01-04T00:58:54;2.40;;;0.97;;
17361;SDS011;8798;51.938;4.348;2023-01-04T01:01:23;2.27;;;1.10;;
17361;SDS011;8798;51.938;4.348;2023-01-04T01:03:52;3.27;;;1.30;;
17361;SDS011;8798;51.938;4.348;2023-01-04T01:06:21;2.30;;;0.90;;
17361;SDS011;8798;51.938;4.348;2023-01-04T01:08:50;1.83;;;1.03;;
17361;SDS011;8798;51.938;4.348;2023-01-04T01:11:19;2.53;;;0.90;;
17361;SDS011;8798;51.938;4.348;2023-01-04T01:13:47;2.27;;;1.30;;
17361;SDS011;8798;51.938;4.348;2023-01-04T01:16:16;3.20;;;1.10;;
17361;SDS011;8798;51.938;4.348;2023-01-04T01:19:06;1.93;;;0.97;;
17361;SDS011;8798;51.938;4.348;2023-01-04T01:21:34;2.70;;;1.10;;
17361;SDS011;8798;51.938;4.348;2023-01-04T01:24:03;4.27;;;0.90;;
17361;SDS011;8798;51.938;4.348;2023-01-04T01:26:33;3.43;;;0.90;;
17361;SDS011;8798;51.938;4.348;2023-01-04T01:29:01;4.57;;;1.10;;
17361;SDS011;8798;51.938;4.348;2023-01-04T01:31:29;2.50;;;1.03;;
17361;SDS011;8798;51.938;4.348;2023-01-04T01:33:57;3.13;;;1.30;;
17361;SDS011;8798;51.938;4.348;2023-01-04T01:36:25;1.97;;;0.90;;
17361;SDS011;8798;51.938;4.348;2023-01-04T01:38:53;3.00;;;1.17;;
17361;SDS011;8798;51.938;4.348;2023-01-04T01:41:22;2.07;;;0.93;;
17361;SDS011;8798;51.938;4.348;2023-01-04T01:43:53;1.40;;;0.90;;
17361;SDS011;8798;51.938;4.348;2023-01-04T01:46:24;1.37;;;0.93;;
17361;SDS011;8798;51.938;4.348;2023-01-04T01:48:56;1.53;;;0.83;;
17361;SDS011;8798;51.938;4.348;2023-01-04T01:51:26;2.67;;;1.10;;
17361;SDS011;8798;51.938;4.348;2023-01-04T01:53:56;1.37;;;1.00;;
17361;SDS011;8798;51.938;4.348;2023-01-04T01:56:30;3.47;;;0.97;;
17361;SDS011;8798;51.938;4.348;2023-01-04T01:59:03;2.30;;;1.03;;
17361;SDS011;8798;51.938;4.348;2023-01-04T02:01:32;4.27;;;1.00;;
17361;SDS011;8798;51.938;4.348;2023-01-04T02:04:01;2.43;;;1.07;;
17361;SDS011;8798;51.938;4.348;2023-01-04T02:06:31;2.30;;;1.20;;
17361;SDS011;8798;51.938;4.348;2023-01-04T02:09:02;0.73;;;0.73;;
17361;SDS011;8798;51.938;4.348;2023-01-04T02:11:30;1.10;;;1.00;;
17361;SDS011;8798;51.938;4.348;2023-01-04T02:13:59;1.47;;;1.10;;
17361;SDS011;8798;51.938;4.348;2023-01-04T02:17:02;1.27;;;1.10;;
17361;SDS011;8798;51.938;4.348;2023-01-04T02:19:37;1.10;;;1.00;;
17361;SDS011;8798;51.938;4.348;2023-01-04T02:22:32;3.63;;;1.10;;
17361;SDS011;8798;51.938;4.348;2023-01-04T02:25:32;1.73;;;1.20;;
17361;SDS011;8798;51.938;4.348;2023-01-04T02:28:22;2.53;;;1.40;;
17361;SDS011;8798;51.938;4.348;2023-01-04T02:33:55;1.70;;;1.50;;
17361;SDS011;8798;51.938;4.348;2023-01-04T02:36:32;2.07;;;1.23;;
17361;SDS011;8798;51.938;4.348;2023-01-04T02:39:10;1.63;;;1.50;;
17361;SDS011;8798;51.938;4.348;2023-01-04T02:41:47;1.60;;;1.43;;
17361;SDS011;8798;51.938;4.348;2023-01-04T02:44:18;4.90;;;1.40;;
17361;SDS011;8798;51.938;4.348;2023-01-04T02:47:12;2.03;;;1.50;;
17361;SDS011;8798;51.938;4.348;2023-01-04T02:49:42;1.20;;;1.10;;
17361;SDS011;8798;51.938;4.348;2023-01-04T02:52:30;2.00;;;1.40;;
17361;SDS011;8798;51.938;4.348;2023-01-04T02:54:59;1.20;;;0.90;;
17361;SDS011;8798;51.938;4.348;2023-01-04T02:57:34;1.90;;;1.10;;
17361;SDS011;8798;51.938;4.348;2023-01-04T03:03:34;1.83;;;1.07;;
17361;SDS011;8798;51.938;4.348;2023-01-04T03:06:30;1.53;;;0.83;;
17361;SDS011;8798;51.938;4.348;2023-01-04T03:09:03;3.20;;;1.10;;
17361;SDS011;8798;51.938;4.348;2023-01-04T03:11:37;3.20;;;1.00;;
17361;SDS011;8798;51.938;4.348;2023-01-04T03:14:28;1.30;;;0.90;;
17361;SDS011;8798;51.938;4.348;2023-01-04T03:17:04;1.60;;;1.17;;
17361;SDS011;8798;51.938;4.348;2023-01-04T03:19:36;1.17;;;0.90;;
17361;SDS011;8798;51.938;4.348;2023-01-04T03:22:21;1.10;;;1.00;;
17361;SDS011;8798;51.938;4.348;2023-01-04T03:25:12;0.93;;;0.90;;
17361;SDS011;8798;51.938;4.348;2023-01-04T03:27:59;1.40;;;1.00;;
17361;SDS011;8798;51.938;4.348;2023-01-04T03:30:47;1.43;;;1.10;;
17361;SDS011;8798;51.938;4.348;2023-01-04T03:33:37;1.07;;;0.80;;
17361;SDS011;8798;51.938;4.348;2023-01-04T03:39:20;1.10;;;0.90;;
17361;SDS011;8798;51.938;4.348;2023-01-04T03:42:15;1.17;;;0.80;;
17361;SDS011;8798;51.938;4.348;2023-01-04T03:45:10;0.80;;;0.80;;
17361;SDS011;8798;51.938;4.348;2023-01-04T03:48:01;2.00;;;1.07;;
17361;SDS011;8798;51.938;4.348;2023-01-04T03:50:57;2.87;;;1.23;;
17361;SDS011;8798;51.938;4.348;2023-01-04T03:53:33;1.63;;;1.20;;
17361;SDS011;8798;51.938;4.348;2023-01-04T03:56:06;1.47;;;1.33;;
17361;SDS011;8798;51.938;4.348;2023-01-04T03:58:37;1.43;;;1.33;;
17361;SDS011;8798;51.938;4.348;2023-01-04T04:01:05;1.47;;;1.30;;
17361;SDS011;8798;51.938;4.348;2023-01-04T04:03:34;1.93;;;1.03;;
17361;SDS011;8798;51.938;4.348;2023-01-04T04:06:19;1.97;;;1.23;;
17361;SDS011;8798;51.938;4.348;2023-01-04T04:09:05;1.77;;;1.27;;
17361;SDS011;8798;51.938;4.348;2023-01-04T04:11:33;2.23;;;1.37;;
17361;SDS011;8798;51.938;4.348;2023-01-04T04:14:01;3.90;;;1.50;;
17361;SDS011;8798;51.938;4.348;2023-01-04T04:16:29;1.83;;;0.90;;
17361;SDS011;8798;51.938;4.348;2023-01-04T04:18:57;1.93;;;1.10;;
17361;SDS011;8798;51.938;4.348;2023-01-04T04:21:33;2.60;;;1.13;;
17361;SDS011;8798;51.938;4.348;2023-01-04T04:24:01;1.27;;;1.00;;
17361;SDS011;8798;51.938;4.348;2023-01-04T04:26:30;1.70;;;1.03;;
17361;SDS011;8798;51.938;4.348;2023-01-04T04:28:58;1.13;;;0.97;;
17361;SDS011;8798;51.938;4.348;2023-01-04T04:31:26;1.63;;;0.90;;
17361;SDS011;8798;51.938;4.348;2023-01-04T04:33:54;2.23;;;1.00;;
17361;SDS011;8798;51.938;4.348;2023-01-04T04:36:22;1.53;;;1.20;;
17361;SDS011;8798;51.938;4.348;2023-01-04T04:38:50;1.70;;;1.10;;
17361;SDS011;8798;51.938;4.348;2023-01-04T04:41:17;3.90;;;1.20;;
17361;SDS011;8798;51.938;4.348;2023-01-04T04:44:04;0.90;;;0.80;;
17361;SDS011;8798;51.938;4.348;2023-01-04T04:46:32;4.07;;;1.20;;
17361;SDS011;8798;51.938;4.348;2023-01-04T04:49:00;2.67;;;0.90;;
17361;SDS011;8798;51.938;4.348;2023-01-04T04:51:28;2.00;;;1.03;;
17361;SDS011;8798;51.938;4.348;2023-01-04T04:53:56;1.70;;;1.00;;
17361;SDS011;8798;51.938;4.348;2023-01-04T04:56:24;1.63;;;1.20;;
17361;SDS011;8798;51.938;4.348;2023-01-04T04:58:52;1.27;;;1.17;;
17361;SDS011;8798;51.938;4.348;2023-01-04T05:01:21;1.07;;;0.93;;
17361;SDS011;8798;51.938;4.348;2023-01-04T05:03:49;1.63;;;1.07;;
17361;SDS011;8798;51.938;4.348;2023-01-04T05:06:17;1.50;;;1.30;;
17361;SDS011;8798;51.938;4.348;2023-01-04T05:08:45;1.30;;;1.20;;
17361;SDS011;8798;51.938;4.348;2023-01-04T05:11:13;1.73;;;1.27;;
17361;SDS011;8798;51.938;4.348;2023-01-04T05:13:41;1.60;;;1.50;;
17361;SDS011;8798;51.938;4.348;2023-01-04T05:16:08;1.80;;;1.47;;
17361;SDS011;8798;51.938;4.348;2023-01-04T05:18:38;3.17;;;1.20;;
17361;SDS011;8798;51.938;4.348;2023-01-04T05:21:05;1.60;;;1.50;;
17361;SDS011;8798;51.938;4.348;2023-01-04T05:23:33;2.83;;;1.50;;
17361;SDS011;8798;51.938;4.348;2023-01-04T05:26:01;2.07;;;1.20;;
17361;SDS011;8798;51.938;4.348;2023-01-04T05:28:30;1.60;;;1.20;;
17361;SDS011;8798;51.938;4.348;2023-01-04T05:30:58;4.27;;;1.23;;
17361;SDS011;8798;51.938;4.348;2023-01-04T05:33:25;1.33;;;1.23;;
17361;SDS011;8798;51.938;4.348;2023-01-04T05:35:57;1.40;;;1.00;;
17361;SDS011;8798;51.938;4.348;2023-01-04T05:38:26;1.57;;;1.00;;
17361;SDS011;8798;51.938;4.348;2023-01-04T05:40:54;1.30;;;1.20;;
17361;SDS011;8798;51.938;4.348;2023-01-04T05:43:23;1.20;;;1.10;;
17361;SDS011;8798;51.938;4.348;2023-01-04T05:45:51;1.40;;;1.30;;
17361;SDS011;8798;51.938;4.348;2023-01-04T05:48:21;1.57;;;1.23;;
17361;SDS011;8798;51.938;4.348;2023-01-04T05:50:51;2.07;;;1.23;;
17361;SDS011;8798;51.938;4.348;2023-01-04T05:53:20;1.30;;;1.20;;
17361;SDS011;8798;51.938;4.348;2023-01-04T05:55:48;1.77;;;1.30;;
17361;SDS011;8798;51.938;4.348;2023-01-04T05:58:16;1.60;;;1.07;;
17361;SDS011;8798;51.938;4.348;2023-01-04T06:00:44;2.23;;;1.10;;
17361;SDS011;8798;51.938;4.348;2023-01-04T06:03:11;1.07;;;0.83;;
17361;SDS011;8798;51.938;4.348;2023-01-04T06:05:40;2.37;;;1.30;;
17361;SDS011;8798;51.938;4.348;2023-01-04T06:08:08;1.77;;;1.00;;
17361;SDS011;8798;51.938;4.348;2023-01-04T06:10:37;2.10;;;1.37;;
17361;SDS011;8798;51.938;4.348;2023-01-04T06:13:04;1.33;;;0.90;;
17361;SDS011;8798;51.938;4.348;2023-01-04T06:15:32;3.57;;;1.00;;
17361;SDS011;8798;51.938;4.348;2023-01-04T06:18:08;2.03;;;1.40;;
17361;SDS011;8798;51.938;4.348;2023-01-04T06:20:39;1.87;;;1.07;;
17361;SDS011;8798;51.938;4.348;2023-01-04T06:23:08;2.63;;;1.17;;
17361;SDS011;8798;51.938;4.348;2023-01-04T06:25:38;2.83;;;1.13;;
17361;SDS011;8798;51.938;4.348;2023-01-04T06:28:06;1.50;;;0.90;;
17361;SDS011;8798;51.938;4.348;2023-01-04T06:30:36;2.43;;;0.87;;
17361;SDS011;8798;51.938;4.348;2023-01-04T06:33:04;1.20;;;1.00;;
17361;SDS011;8798;51.938;4.348;2023-01-04T06:35:31;2.20;;;1.13;;
17361;SDS011;8798;51.938;4.348;2023-01-04T06:38:01;2.23;;;1.00;;
17361;SDS011;8798;51.938;4.348;2023-01-04T06:40:29;7.40;;;1.40;;
17361;SDS011;8798;51.938;4.348;2023-01-04T06:42:58;5.10;;;1.20;;
17361;SDS011;8798;51.938;4.348;2023-01-04T06:45:32;2.30;;;1.00;;
17361;SDS011;8798;51.938;4.348;2023-01-04T06:48:00;1.93;;;1.00;;
17361;SDS011;8798;51.938;4.348;2023-01-04T06:50:34;4.33;;;1.20;;
17361;SDS011;8798;51.938;4.348;2023-01-04T06:53:02;2.60;;;1.03;;
17361;SDS011;8798;51.938;4.348;2023-01-04T06:55:29;2.63;;;1.00;;
17361;SDS011;8798;51.938;4.348;2023-01-04T06:57:59;3.27;;;1.10;;
17361;SDS011;8798;51.938;4.348;2023-01-04T07:00:27;2.33;;;1.10;;
17361;SDS011;8798;51.938;4.348;2023-01-04T07:02:54;5.77;;;1.20;;
17361;SDS011;8798;51.938;4.348;2023-01-04T07:05:41;2.50;;;1.10;;
17361;SDS011;8798;51.938;4.348;2023-01-04T07:08:09;5.67;;;1.20;;
17361;SDS011;8798;51.938;4.348;2023-01-04T07:10:37;1.97;;;1.10;;
17361;SDS011;8798;51.938;4.348;2023-01-04T07:13:07;3.83;;;0.93;;
17361;SDS011;8798;51.938;4.348;2023-01-04T07:15:35;4.23;;;1.10;;
17361;SDS011;8798;51.938;4.348;2023-01-04T07:18:06;2.80;;;0.93;;
17361;SDS011;8798;51.938;4.348;2023-01-04T07:20:34;4.43;;;1.47;;
17361;SDS011;8798;51.938;4.348;2023-01-04T07:23:03;2.80;;;1.03;;
17361;SDS011;8798;51.938;4.348;2023-01-04T07:25:30;4.83;;;1.03;;
17361;SDS011;8798;51.938;4.348;2023-01-04T07:27:58;2.50;;;1.17;;
17361;SDS011;8798;51.938;4.348;2023-01-04T07:30:27;8.60;;;1.23;;
17361;SDS011;8798;51.938;4.348;2023-01-04T07:32:56;2.53;;;1.13;;
17361;SDS011;8798;51.938;4.348;2023-01-04T07:35:24;6.37;;;1.10;;
17361;SDS011;8798;51.938;4.348;2023-01-04T07:37:52;3.03;;;1.07;;
17361;SDS011;8798;51.938;4.348;2023-01-04T07:40:24;2.13;;;0.93;;
17361;SDS011;8798;51.938;4.348;2023-01-04T07:42:53;6.10;;;1.03;;
17361;SDS011;8798;51.938;4.348;2023-01-04T07:45:23;5.03;;;1.10;;
17361;SDS011;8798;51.938;4.348;2023-01-04T07:47:52;3.73;;;1.23;;
17361;SDS011;8798;51.938;4.348;2023-01-04T07:50:20;3.43;;;1.40;;
17361;SDS011;8798;51.938;4.348;2023-01-04T07:52:47;4.00;;;1.47;;
17361;SDS011;8798;51.938;4.348;2023-01-04T07:55:15;3.43;;;1.50;;
17361;SDS011;8798;51.938;4.348;2023-01-04T07:57:43;4.77;;;1.37;;
17361;SDS011;8798;51.938;4.348;2023-01-04T08:00:11;7.27;;;1.90;;
17361;SDS011;8798;51.938;4.348;2023-01-04T08:02:40;3.67;;;1.77;;
17361;SDS011;8798;51.938;4.348;2023-01-04T08:05:09;4.67;;;1.50;;
17361;SDS011;8798;51.938;4.348;2023-01-04T08:07:37;4.67;;;1.43;;
17361;SDS011;8798;51.938;4.348;2023-01-04T08:10:06;4.50;;;1.17;;
17361;SDS011;8798;51.938;4.348;2023-01-04T08:12:34;4.77;;;1.13;;
17361;SDS011;8798;51.938;4.348;2023-01-04T08:15:02;4.07;;;1.23;;
17361;SDS011;8798;51.938;4.348;2023-01-04T08:17:31;9.63;;;1.70;;
17361;SDS011;8798;51.938;4.348;2023-01-04T08:19:58;5.00;;;1.20;;
17361;SDS011;8798;51.938;4.348;2023-01-04T08:22:29;8.80;;;1.60;;
17361;SDS011;8798;51.938;4.348;2023-01-04T08:24:56;11.83;;;1.80;;
17361;SDS011;8798;51.938;4.348;2023-01-04T08:27:24;11.13;;;1.87;;
17361;SDS011;8798;51.938;4.348;2023-01-04T08:29:52;5.97;;;1.53;;
17361;SDS011;8798;51.938;4.348;2023-01-04T08:32:20;9.30;;;2.43;;
17361;SDS011;8798;51.938;4.348;2023-01-04T08:34:48;7.37;;;2.13;;
17361;SDS011;8798;51.938;4.348;2023-01-04T08:37:16;8.57;;;1.47;;
17361;SDS011;8798;51.938;4.348;2023-01-04T08:39:45;10.20;;;1.90;;
17361;SDS011;8798;51.938;4.348;2023-01-04T08:42:15;8.00;;;1.67;;
17361;SDS011;8798;51.938;4.348;2023-01-04T08:44:56;8.43;;;1.50;;
17361;SDS011;8798;51.938;4.348;2023-01-04T08:47:26;8.57;;;1.47;;
17361;SDS011;8798;51.938;4.348;2023-01-04T08:49:55;5.57;;;1.63;;
17361;SDS011;8798;51.938;4.348;2023-01-04T08:52:25;5.80;;;1.43;;
17361;SDS011;8798;51.938;4.348;2023-01-04T08:54:54;9.50;;;1.43;;
17361;SDS011;8798;51.938;4.348;2023-01-04T08:57:22;9.50;;;1.87;;
17361;SDS011;8798;51.938;4.348;2023-01-04T08:59:50;6.10;;;1.70;;
17361;SDS011;8798;51.938;4.348;2023-01-04T09:02:19;4.87;;;1.60;;
17361;SDS011;8798;51.938;4.348;2023-01-04T09:04:49;7.03;;;1.60;;
17361;SDS011;8798;51.938;4.348;2023-01-04T09:07:17;8.27;;;1.43;;
17361;SDS011;8798;51.938;4.348;2023-01-04T09:09:45;9.10;;;1.63;;
17361;SDS011;8798;51.938;4.348;2023-01-04T09:12:14;7.47;;;1.27;;
17361;SDS011;8798;51.938;4.348;2023-01-04T09:14:42;6.43;;;1.70;;
17361;SDS011;8798;51.938;4.348;2023-01-04T09:17:10;8.73;;;1.67;;
17361;SDS011;8798;51.938;4.348;2023-01-04T09:19:38;10.60;;;1.53;;
17361;SDS011;8798;51.938;4.348;2023-01-04T09:22:06;11.60;;;1.60;;
17361;SDS011;8798;51.938;4.348;2023-01-04T09:24:34;10.67;;;1.67;;
17361;SDS011;8798;51.938;4.348;2023-01-04T09:27:01;9.70;;;1.50;;
17361;SDS011;8798;51.938;4.348;2023-01-04T09:29:31;7.67;;;1.83;;
17361;SDS011;8798;51.938;4.348;2023-01-04T09:31:59;6.93;;;1.20;;
17361;SDS011;8798;51.938;4.348;2023-01-04T09:34:27;4.63;;;1.20;;
17361;SDS011;8798;51.938;4.348;2023-01-04T09:36:55;7.87;;;1.37;;
17361;SDS011;8798;51.938;4.348;2023-01-04T09:39:23;7.30;;;1.57;;
17361;SDS011;8798;51.938;4.348;2023-01-04T09:41:56;5.83;;;1.30;;
17361;SDS011;8798;51.938;4.348;2023-01-04T09:44:27;8.00;;;1.40;;
17361;SDS011;8798;51.938;4.348;2023-01-04T09:47:24;6.63;;;1.60;;
17361;SDS011;8798;51.938;4.348;2023-01-04T09:50:00;7.03;;;1.57;;
17361;SDS011;8798;51.938;4.348;2023-01-04T09:52:37;8.20;;;1.67;;
17361;SDS011;8798;51.938;4.348;2023-01-04T09:55:14;7.10;;;1.33;;
17361;SDS011;8798;51.938;4.348;2023-01-04T09:58:07;9.23;;;1.10;;
17361;SDS011;8798;51.938;4.348;2023-01-04T10:00:46;5.63;;;1.00;;
17361;SDS011;8798;51.938;4.348;2023-01-04T10:03:18;4.53;;;1.23;;
17361;SDS011;8798;51.938;4.348;2023-01-04T10:05:51;10.03;;;1.20;;
17361;SDS011;8798;51.938;4.348;2023-01-04T10:08:21;8.20;;;1.40;;
17361;SDS011;8798;51.938;4.348;2023-01-04T10:10:52;6.43;;;1.13;;
17361;SDS011;8798;51.938;4.348;2023-01-04T10:13:35;4.73;;;1.20;;
17361;SDS011;8798;51.938;4.348;2023-01-04T10:16:16;6.37;;;1.07;;
17361;SDS011;8798;51.938;4.348;2023-01-04T10:19:20;3.13;;;1.10;;
17361;SDS011;8798;51.938;4.348;2023-01-04T10:22:22;6.00;;;1.00;;
17361;SDS011;8798;51.938;4.348;2023-01-04T10:24:59;3.07;;;0.90;;
17361;SDS011;8798;51.938;4.348;2023-01-04T10:27:43;3.23;;;0.80;;
17361;SDS011;8798;51.938;4.348;2023-01-04T10:30:20;3.70;;;0.60;;
17361;SDS011;8798;51.938;4.348;2023-01-04T10:32:59;4.43;;;1.13;;
17361;SDS011;8798;51.938;4.348;2023-01-04T10:35:34;2.57;;;0.50;;
17361;SDS011;8798;51.938;4.348;2023-01-04T10:38:07;1.73;;;0.60;;
17361;SDS011;8798;51.938;4.348;2023-01-04T10:40:40;2.70;;;0.83;;
17361;SDS011;8798;51.938;4.348;2023-01-04T10:43:12;4.40;;;0.70;;
17361;SDS011;8798;51.938;4.348;2023-01-04T10:45:49;3.10;;;0.80;;
17361;SDS011;8798;51.938;4.348;2023-01-04T10:48:23;4.07;;;1.10;;
17361;SDS011;8798;51.938;4.348;2023-01-04T10:51:00;2.80;;;0.80;;
17361;SDS011;8798;51.938;4.348;2023-01-04T10:53:37;3.20;;;0.83;;
17361;SDS011;8798;51.938;4.348;2023-01-04T10:56:13;4.80;;;0.87;;
17361;SDS011;8798;51.938;4.348;2023-01-04T10:58:53;1.00;;;0.60;;
17361;SDS011;8798;51.938;4.348;2023-01-04T11:01:27;7.67;;;1.23;;
17361;SDS011;8798;51.938;4.348;2023-01-04T11:04:00;4.90;;;1.37;;
17361;SDS011;8798;51.938;4.348;2023-01-04T11:06:33;2.53;;;0.80;;
17361;SDS011;8798;51.938;4.348;2023-01-04T11:09:07;3.23;;;0.80;;
17361;SDS011;8798;51.938;4.348;2023-01-04T11:11:48;4.33;;;0.80;;
17361;SDS011;8798;51.938;4.348;2023-01-04T11:14:16;3.83;;;0.83;;
17361;SDS011;8798;51.938;4.348;2023-01-04T11:16:45;2.37;;;0.67;;
17361;SDS011;8798;51.938;4.348;2023-01-04T11:19:17;3.00;;;0.97;;
17361;SDS011;8798;51.938;4.348;2023-01-04T11:21:45;4.37;;;0.90;;
17361;SDS011;8798;51.938;4.348;2023-01-04T11:24:17;4.90;;;1.03;;
17361;SDS011;8798;51.938;4.348;2023-01-04T11:26:58;4.13;;;0.87;;
17361;SDS011;8798;51.938;4.348;2023-01-04T11:29:32;5.50;;;1.00;;
17361;SDS011;8798;51.938;4.348;2023-01-04T11:32:10;4.27;;;1.10;;
17361;SDS011;8798;51.938;4.348;2023-01-04T11:34:49;8.20;;;1.40;;
17361;SDS011;8798;51.938;4.348;2023-01-04T11:37:25;5.97;;;1.43;;
17361;SDS011;8798;51.938;4.348;2023-01-04T11:40:09;4.10;;;1.20;;
17361;SDS011;8798;51.938;4.348;2023-01-04T11:42:48;6.03;;;1.10;;
17361;SDS011;8798;51.938;4.348;2023-01-04T11:45:19;6.73;;;1.70;;
17361;SDS011;8798;51.938;4.348;2023-01-04T11:47:51;6.57;;;1.93;;
17361;SDS011;8798;51.938;4.348;2023-01-04T11:50:35;5.17;;;1.00;;
17361;SDS011;8798;51.938;4.348;2023-01-04T11:53:21;7.03;;;1.10;;
17361;SDS011;8798;51.938;4.348;2023-01-04T11:55:51;6.17;;;1.40;;
17361;SDS011;8798;51.938;4.348;2023-01-04T11:58:34;9.70;;;1.50;;
17361;SDS011;8798;51.938;4.348;2023-01-04T12:01:01;8.57;;;1.30;;
17361;SDS011;8798;51.938;4.348;2023-01-04T12:03:30;5.30;;;1.10;;
17361;SDS011;8798;51.938;4.348;2023-01-04T12:06:02;11.93;;;1.73;;
17361;SDS011;8798;51.938;4.348;2023-01-04T12:08:39;7.23;;;1.10;;
17361;SDS011;8798;51.938;4.348;2023-01-04T12:11:08;11.37;;;1.50;;
17361;SDS011;8798;51.938;4.348;2023-01-04T12:13:46;9.33;;;1.30;;
17361;SDS011;8798;51.938;4.348;2023-01-04T12:16:16;6.43;;;1.13;;
17361;SDS011;8798;51.938;4.348;2023-01-04T12:18:52;5.33;;;1.17;;
17361;SDS011;8798;51.938;4.348;2023-01-04T12:21:22;6.93;;;1.40;;
17361;SDS011;8798;51.938;4.348;2023-01-04T12:23:52;7.20;;;1.20;;
17361;SDS011;8798;51.938;4.348;2023-01-04T12:26:21;7.43;;;1.20;;
17361;SDS011;8798;51.938;4.348;2023-01-04T12:28:50;7.43;;;1.73;;
17361;SDS011;8798;51.938;4.348;2023-01-04T12:31:30;6.70;;;1.40;;
17361;SDS011;8798;51.938;4.348;2023-01-04T12:37:02;6.33;;;1.30;;
17361;SDS011;8798;51.938;4.348;2023-01-04T12:39:38;6.10;;;1.30;;
17361;SDS011;8798;51.938;4.348;2023-01-04T12:42:13;3.67;;;0.97;;
17361;SDS011;8798;51.938;4.348;2023-01-04T12:44:59;4.73;;;1.43;;
17361;SDS011;8798;51.938;4.348;2023-01-04T12:47:41;4.87;;;1.27;;
17361;SDS011;8798;51.938;4.348;2023-01-04T12:50:30;6.80;;;1.30;;
17361;SDS011;8798;51.938;4.348;2023-01-04T12:53:07;9.57;;;1.37;;
17361;SDS011;8798;51.938;4.348;2023-01-04T12:56:13;6.47;;;1.27;;
17361;SDS011;8798;51.938;4.348;2023-01-04T13:04:42;5.23;;;1.20;;
17361;SDS011;8798;51.938;4.348;2023-01-04T13:07:13;10.73;;;1.60;;
17361;SDS011;8798;51.938;4.348;2023-01-04T13:09:49;9.93;;;1.87;;
17361;SDS011;8798;51.938;4.348;2023-01-04T13:15:20;6.23;;;1.30;;
17361;SDS011;8798;51.938;4.348;2023-01-04T13:17:50;8.17;;;1.53;;
17361;SDS011;8798;51.938;4.348;2023-01-04T13:20:19;6.10;;;1.80;;
17361;SDS011;8798;51.938;4.348;2023-01-04T13:22:50;6.90;;;1.27;;
17361;SDS011;8798;51.938;4.348;2023-01-04T13:25:21;7.27;;;1.20;;
17361;SDS011;8798;51.938;4.348;2023-01-04T13:27:55;7.53;;;1.63;;
17361;SDS011;8798;51.938;4.348;2023-01-04T13:30:31;6.27;;;1.30;;
17361;SDS011;8798;51.938;4.348;2023-01-04T13:33:10;9.70;;;1.50;;
17361;SDS011;8798;51.938;4.348;2023-01-04T13:35:58;6.80;;;1.27;;
17361;SDS011;8798;51.938;4.348;2023-01-04T13:38:30;8.17;;;1.40;;
17361;SDS011;8798;51.938;4.348;2023-01-04T13:41:01;5.83;;;1.30;;
17361;SDS011;8798;51.938;4.348;2023-01-04T13:43:50;13.23;;;1.60;;
17361;SDS011;8798;51.938;4.348;2023-01-04T13:46:28;6.27;;;1.10;;
17361;SDS011;8798;51.938;4.348;2023-01-04T13:48:58;7.03;;;1.33;;
17361;SDS011;8798;51.938;4.348;2023-01-04T13:51:29;8.20;;;1.60;;
17361;SDS011;8798;51.938;4.348;2023-01-04T13:54:03;5.70;;;1.30;;
17361;SDS011;8798;51.938;4.348;2023-01-04T13:56:34;12.43;;;1.97;;
17361;SDS011;8798;51.938;4.348;2023-01-04T13:59:02;7.87;;;1.57;;
17361;SDS011;8798;51.938;4.348;2023-01-04T14:01:30;8.57;;;1.30;;
17361;SDS011;8798;51.938;4.348;2023-01-04T14:04:01;8.90;;;1.87;;
17361;SDS011;8798;51.938;4.348;2023-01-04T14:06:32;11.90;;;1.70;;
17361;SDS011;8798;51.938;4.348;2023-01-04T14:09:11;8.30;;;1.60;;
17361;SDS011;8798;51.938;4.348;2023-01-04T14:11:43;13.70;;;2.23;;
17361;SDS011;8798;51.938;4.348;2023-01-04T14:14:34;5.03;;;1.40;;
17361;SDS011;8798;51.938;4.348;2023-01-04T14:17:17;8.47;;;1.70;;
17361;SDS011;8798;51.938;4.348;2023-01-04T14:19:48;5.23;;;1.47;;
17361;SDS011;8798;51.938;4.348;2023-01-04T14:22:31;10.20;;;1.83;;
17361;SDS011;8798;51.938;4.348;2023-01-04T14:28:23;11.77;;;1.93;;
17361;SDS011;8798;51.938;4.348;2023-01-04T14:30:54;11.33;;;2.10;;
17361;SDS011;8798;51.938;4.348;2023-01-04T14:33:38;9.30;;;1.83;;
17361;SDS011;8798;51.938;4.348;2023-01-04T14:36:10;10.30;;;2.47;;
17361;SDS011;8798;51.938;4.348;2023-01-04T14:38:41;13.13;;;2.60;;
17361;SDS011;8798;51.938;4.348;2023-01-04T14:41:16;11.80;;;1.97;;
17361;SDS011;8798;51.938;4.348;2023-01-04T14:43:49;14.70;;;2.53;;
17361;SDS011;8798;51.938;4.348;2023-01-04T14:46:19;10.37;;;2.50;;
17361;SDS011;8798;51.938;4.348;2023-01-04T14:48:47;16.10;;;2.13;;
17361;SDS011;8798;51.938;4.348;2023-01-04T14:51:16;13.30;;;2.90;;
17361;SDS011;8798;51.938;4.348;2023-01-04T14:53:45;15.27;;;2.57;;
17361;SDS011;8798;51.938;4.348;2023-01-04T14:56:15;16.70;;;2.70;;
17361;SDS011;8798;51.938;4.348;2023-01-04T14:58:44;10.43;;;2.20;;
17361;SDS011;8798;51.938;4.348;2023-01-04T15:01:13;13.23;;;2.90;;
17361;SDS011;8798;51.938;4.348;2023-01-04T15:03:41;10.53;;;2.83;;
17361;SDS011;8798;51.938;4.348;2023-01-04T15:06:09;17.57;;;3.10;;
17361;SDS011;8798;51.938;4.348;2023-01-04T15:08:37;11.10;;;2.07;;
17361;SDS011;8798;51.938;4.348;2023-01-04T15:11:05;18.77;;;3.00;;
17361;SDS011;8798;51.938;4.348;2023-01-04T15:13:35;14.30;;;2.90;;
17361;SDS011;8798;51.938;4.348;2023-01-04T15:16:05;9.87;;;2.07;;
17361;SDS011;8798;51.938;4.348;2023-01-04T15:18:37;10.50;;;2.77;;
17361;SDS011;8798;51.938;4.348;2023-01-04T15:21:05;13.27;;;2.83;;
17361;SDS011;8798;51.938;4.348;2023-01-04T15:23:34;13.53;;;2.33;;
17361;SDS011;8798;51.938;4.348;2023-01-04T15:26:03;15.93;;;2.63;;
17361;SDS011;8798;51.938;4.348;2023-01-04T15:28:31;15.57;;;3.03;;
17361;SDS011;8798;51.938;4.348;2023-01-04T15:30:59;13.40;;;2.40;;
17361;SDS011;8798;51.938;4.348;2023-01-04T15:33:32;10.40;;;2.40;;
17361;SDS011;8798;51.938;4.348;2023-01-04T15:36:03;9.07;;;2.43;;
17361;SDS011;8798;51.938;4.348;2023-01-04T15:38:32;13.63;;;2.43;;
17361;SDS011;8798;51.938;4.348;2023-01-04T15:41:01;14.53;;;2.83;;
17361;SDS011;8798;51.938;4.348;2023-01-04T15:43:32;13.57;;;2.93;;
17361;SDS011;8798;51.938;4.348;2023-01-04T15:46:02;11.07;;;2.27;;
17361;SDS011;8798;51.938;4.348;2023-01-04T15:48:32;13.30;;;2.70;;
17361;SDS011;8798;51.938;4.348;2023-01-04T15:51:02;11.43;;;2.60;;
17361;SDS011;8798;51.938;4.348;2023-01-04T15:53:33;13.30;;;2.57;;
17361;SDS011;8798;51.938;4.348;2023-01-04T15:56:05;11.07;;;2.20;;
17361;SDS011;8798;51.938;4.348;2023-01-04T15:58:34;14.10;;;2.33;;